SJV876 WIII-WIPP
Flight info
| Callsign | SJV876 |
|---|---|
| Flight time | 1h 10m |
| Altitude | 32000 |
| Route | DOLTA W12 GUSKO |
| Aircraft | A320/M-SDE3FGHIRWY/LB1 |
Departure
| Time | 2026-04-20 07:17 |
|---|---|
| Airport | Soekarno-Hatta International Airport (WIII) |
Arrival
| Time | 2026-04-20 08:28 |
|---|---|
| Airport | Sultan Mahmud Badaruddin II Airport (WIPP) |
| Time | Latitude | Longitude | Altitude | Speed | Heading |
|---|---|---|---|---|---|
| 2026-04-20 07:06 | -6.11971 | 106.65125 | 38 ft | 0 kts | 157° |
| 2026-04-20 07:08 | -6.11950 | 106.65117 | 36 ft | 4 kts | 162° |
| 2026-04-20 07:08 | -6.11924 | 106.65111 | 38 ft | 4 kts | 176° |
| 2026-04-20 07:08 | -6.11899 | 106.65113 | 38 ft | 4 kts | 215° |
| 2026-04-20 07:09 | -6.11889 | 106.65124 | 38 ft | 1 kts | 248° |
| 2026-04-20 07:09 | -6.11888 | 106.65126 | 38 ft | 0 kts | 248° |
| 2026-04-20 07:12 | -6.11890 | 106.65124 | 38 ft | 1 kts | 248° |
| 2026-04-20 07:12 | -6.11896 | 106.65109 | 38 ft | 3 kts | 247° |
| 2026-04-20 07:12 | -6.11907 | 106.65082 | 38 ft | 5 kts | 248° |
| 2026-04-20 07:12 | -6.11922 | 106.65043 | 37 ft | 7 kts | 248° |
| 2026-04-20 07:13 | -6.11942 | 106.64993 | 38 ft | 9 kts | 249° |
| 2026-04-20 07:13 | -6.11967 | 106.64929 | 38 ft | 11 kts | 248° |
| 2026-04-20 07:13 | -6.11998 | 106.64852 | 38 ft | 13 kts | 248° |
| 2026-04-20 07:13 | -6.12034 | 106.64764 | 38 ft | 15 kts | 248° |
| 2026-04-20 07:14 | -6.12075 | 106.64664 | 38 ft | 16 kts | 248° |
| 2026-04-20 07:14 | -6.12120 | 106.64551 | 36 ft | 18 kts | 248° |
| 2026-04-20 07:14 | -6.12170 | 106.64426 | 38 ft | 20 kts | 248° |
| 2026-04-20 07:14 | -6.12225 | 106.64288 | 38 ft | 22 kts | 248° |
| 2026-04-20 07:15 | -6.12285 | 106.64137 | 38 ft | 24 kts | 248° |
| 2026-04-20 07:15 | -6.12335 | 106.64012 | 37 ft | 15 kts | 248° |
| 2026-04-20 07:15 | -6.12325 | 106.63939 | 37 ft | 12 kts | 321° |
| 2026-04-20 07:15 | -6.12249 | 106.63894 | 39 ft | 14 kts | 330° |
| 2026-04-20 07:16 | -6.12165 | 106.63879 | 39 ft | 13 kts | 17° |
| 2026-04-20 07:16 | -6.12100 | 106.63899 | 39 ft | 6 kts | 358° |
| 2026-04-20 07:16 | -6.12071 | 106.63932 | 36 ft | 7 kts | 69° |
| 2026-04-20 07:16 | -6.12012 | 106.64088 | 37 ft | 55 kts | 69° |
| 2026-04-20 07:17 | -6.11786 | 106.64648 | 40 ft | 115 kts | 68° |
| 2026-04-20 07:17 | -6.11432 | 106.65540 | 36 ft | 158 kts | 68° |
| 2026-04-20 07:17 | -6.10988 | 106.66638 | 357 ft | 174 kts | 67° |
| 2026-04-20 07:17 | -6.10528 | 106.67807 | 893 ft | 183 kts | 66° |
| 2026-04-20 07:18 | -6.09871 | 106.68874 | 1647 ft | 180 kts | 39° |
| 2026-04-20 07:18 | -6.08816 | 106.69603 | 2054 ft | 193 kts | 32° |
| 2026-04-20 07:18 | -6.07577 | 106.70316 | 2281 ft | 218 kts | 30° |
| 2026-04-20 07:18 | -6.06186 | 106.71092 | 2612 ft | 241 kts | 30° |
| 2026-04-20 07:19 | -6.04657 | 106.71948 | 3069 ft | 259 kts | 31° |
| 2026-04-20 07:19 | -6.03063 | 106.72850 | 3814 ft | 266 kts | 31° |
| 2026-04-20 07:19 | -6.01450 | 106.73777 | 4625 ft | 270 kts | 31° |
| 2026-04-20 07:19 | -5.99757 | 106.74623 | 5442 ft | 276 kts | 18° |
| 2026-04-20 07:20 | -5.97835 | 106.74735 | 6214 ft | 284 kts | 349° |
| 2026-04-20 07:20 | -5.96042 | 106.73900 | 6975 ft | 290 kts | 320° |
| 2026-04-20 07:20 | -5.94828 | 106.72273 | 7715 ft | 296 kts | 296° |
| 2026-04-20 07:20 | -5.93948 | 106.70397 | 8465 ft | 298 kts | 295° |
| 2026-04-20 07:21 | -5.93076 | 106.68496 | 9196 ft | 301 kts | 295° |
| 2026-04-20 07:21 | -5.92199 | 106.66575 | 9891 ft | 304 kts | 295° |
| 2026-04-20 07:21 | -5.91301 | 106.64613 | 10299 ft | 318 kts | 295° |
| 2026-04-20 07:21 | -5.90340 | 106.62523 | 10443 ft | 340 kts | 295° |
| 2026-04-20 07:22 | -5.89320 | 106.60312 | 10670 ft | 357 kts | 295° |
| 2026-04-20 07:22 | -5.88262 | 106.58036 | 11186 ft | 362 kts | 295° |
| 2026-04-20 07:22 | -5.87191 | 106.55740 | 11758 ft | 365 kts | 295° |
| 2026-04-20 07:22 | -5.86108 | 106.53420 | 12333 ft | 368 kts | 295° |
| 2026-04-20 07:23 | -5.85032 | 106.51113 | 12912 ft | 371 kts | 295° |
| 2026-04-20 07:23 | -5.83933 | 106.48763 | 13483 ft | 373 kts | 295° |
| 2026-04-20 07:23 | -5.82827 | 106.46397 | 14042 ft | 375 kts | 295° |
| 2026-04-20 07:23 | -5.81699 | 106.43981 | 14597 ft | 378 kts | 295° |
| 2026-04-20 07:24 | -5.80584 | 106.41584 | 15145 ft | 381 kts | 295° |
| 2026-04-20 07:24 | -5.79462 | 106.39166 | 15689 ft | 383 kts | 295° |
| 2026-04-20 07:24 | -5.78349 | 106.36767 | 16196 ft | 385 kts | 295° |
| 2026-04-20 07:24 | -5.77214 | 106.34320 | 16711 ft | 388 kts | 295° |
| 2026-04-20 07:25 | -5.76072 | 106.31861 | 17223 ft | 389 kts | 295° |
| 2026-04-20 07:25 | -5.74814 | 106.29450 | 17719 ft | 391 kts | 303° |
| 2026-04-20 07:25 | -5.73124 | 106.27305 | 18194 ft | 393 kts | 315° |
| 2026-04-20 07:25 | -5.71035 | 106.25529 | 18659 ft | 395 kts | 326° |
| 2026-04-20 07:26 | -5.68661 | 106.24124 | 19108 ft | 397 kts | 331° |
| 2026-04-20 07:26 | -5.66240 | 106.22767 | 19562 ft | 400 kts | 331° |
| 2026-04-20 07:26 | -5.63809 | 106.21406 | 19997 ft | 402 kts | 331° |
| 2026-04-20 07:26 | -5.61357 | 106.20031 | 20424 ft | 405 kts | 331° |
| 2026-04-20 07:27 | -5.58893 | 106.18641 | 20843 ft | 408 kts | 331° |
| 2026-04-20 07:27 | -5.56413 | 106.17240 | 21249 ft | 410 kts | 331° |
| 2026-04-20 07:27 | -5.53921 | 106.15830 | 21657 ft | 412 kts | 331° |
| 2026-04-20 07:27 | -5.51414 | 106.14410 | 22034 ft | 415 kts | 331° |
| 2026-04-20 07:28 | -5.48892 | 106.12984 | 22406 ft | 417 kts | 330° |
| 2026-04-20 07:28 | -5.46355 | 106.11549 | 22764 ft | 420 kts | 331° |
| 2026-04-20 07:28 | -5.43804 | 106.10108 | 23103 ft | 422 kts | 331° |
| 2026-04-20 07:28 | -5.41240 | 106.08659 | 23450 ft | 424 kts | 331° |
| 2026-04-20 07:29 | -5.38661 | 106.07204 | 23782 ft | 426 kts | 331° |
| 2026-04-20 07:29 | -5.36070 | 106.05743 | 24111 ft | 428 kts | 331° |
| 2026-04-20 07:29 | -5.33471 | 106.04279 | 24419 ft | 430 kts | 331° |
| 2026-04-20 07:29 | -5.30854 | 106.02807 | 24723 ft | 432 kts | 331° |
| 2026-04-20 07:30 | -5.28224 | 106.01328 | 25026 ft | 434 kts | 331° |
| 2026-04-20 07:30 | -5.25583 | 105.99840 | 25319 ft | 436 kts | 331° |
| 2026-04-20 07:30 | -5.22931 | 105.98343 | 25604 ft | 438 kts | 331° |
| 2026-04-20 07:30 | -5.20302 | 105.96856 | 25874 ft | 441 kts | 331° |
| 2026-04-20 07:31 | -5.17627 | 105.95343 | 26146 ft | 442 kts | 331° |
| 2026-04-20 07:31 | -5.14940 | 105.93824 | 26399 ft | 444 kts | 331° |
| 2026-04-20 07:31 | -5.12246 | 105.92303 | 26669 ft | 446 kts | 331° |
| 2026-04-20 07:31 | -5.09536 | 105.90768 | 26988 ft | 446 kts | 331° |
| 2026-04-20 07:32 | -5.06902 | 105.89267 | 28071 ft | 426 kts | 331° |
| 2026-04-20 07:32 | -5.04386 | 105.87828 | 29183 ft | 406 kts | 331° |
| 2026-04-20 07:32 | -5.01997 | 105.86462 | 30291 ft | 385 kts | 331° |
| 2026-04-20 07:32 | -4.99695 | 105.85148 | 30994 ft | 377 kts | 331° |
| 2026-04-20 07:33 | -4.97419 | 105.83849 | 31368 ft | 376 kts | 331° |
| 2026-04-20 07:33 | -4.95148 | 105.82554 | 31644 ft | 377 kts | 331° |
| 2026-04-20 07:33 | -4.92854 | 105.81247 | 31794 ft | 382 kts | 331° |
| 2026-04-20 07:34 | -4.88124 | 105.78558 | 31823 ft | 400 kts | 331° |
| 2026-04-20 07:34 | -4.83173 | 105.75742 | 31824 ft | 418 kts | 331° |
| 2026-04-20 07:35 | -4.78007 | 105.72796 | 31822 ft | 436 kts | 331° |
| 2026-04-20 07:35 | -4.75378 | 105.71298 | 31824 ft | 445 kts | 331° |
| 2026-04-20 07:35 | -4.69871 | 105.68157 | 31824 ft | 458 kts | 331° |
| 2026-04-20 07:36 | -4.64308 | 105.64992 | 31823 ft | 461 kts | 331° |
| 2026-04-20 07:36 | -4.58731 | 105.61822 | 31822 ft | 461 kts | 331° |
| 2026-04-20 07:37 | -4.53187 | 105.58682 | 31823 ft | 460 kts | 331° |
| 2026-04-20 07:37 | -4.47612 | 105.55511 | 31824 ft | 461 kts | 331° |
| 2026-04-20 07:38 | -4.42035 | 105.52339 | 31828 ft | 461 kts | 331° |
| 2026-04-20 07:38 | -4.36451 | 105.49163 | 31835 ft | 461 kts | 331° |
| 2026-04-20 07:39 | -4.30877 | 105.45994 | 31825 ft | 461 kts | 331° |
| 2026-04-20 07:39 | -4.28085 | 105.44406 | 31560 ft | 459 kts | 331° |
| 2026-04-20 07:39 | -4.25322 | 105.42832 | 31019 ft | 455 kts | 331° |
| 2026-04-20 07:40 | -4.22574 | 105.41267 | 30442 ft | 453 kts | 331° |
| 2026-04-20 07:40 | -4.19841 | 105.39715 | 29869 ft | 450 kts | 331° |
| 2026-04-20 07:40 | -4.17131 | 105.38174 | 29293 ft | 447 kts | 331° |
| 2026-04-20 07:40 | -4.14430 | 105.36638 | 28721 ft | 444 kts | 331° |
| 2026-04-20 07:41 | -4.11754 | 105.35116 | 28152 ft | 441 kts | 331° |
| 2026-04-20 07:41 | -4.09088 | 105.33606 | 27592 ft | 438 kts | 331° |
| 2026-04-20 07:41 | -4.06442 | 105.32108 | 27027 ft | 435 kts | 331° |
| 2026-04-20 07:41 | -4.03815 | 105.30617 | 26472 ft | 432 kts | 331° |
| 2026-04-20 07:42 | -4.01205 | 105.29139 | 25920 ft | 429 kts | 331° |
| 2026-04-20 07:42 | -3.98619 | 105.27668 | 25384 ft | 425 kts | 331° |
| 2026-04-20 07:42 | -3.96065 | 105.26209 | 24864 ft | 422 kts | 331° |
| 2026-04-20 07:42 | -3.93528 | 105.24760 | 24354 ft | 417 kts | 331° |
| 2026-04-20 07:43 | -3.91017 | 105.23329 | 23859 ft | 413 kts | 331° |
| 2026-04-20 07:43 | -3.88526 | 105.21920 | 23391 ft | 409 kts | 331° |
| 2026-04-20 07:43 | -3.86054 | 105.20531 | 22919 ft | 406 kts | 331° |
| 2026-04-20 07:43 | -3.83600 | 105.19158 | 22454 ft | 403 kts | 331° |
| 2026-04-20 07:44 | -3.81166 | 105.17796 | 21994 ft | 399 kts | 331° |
| 2026-04-20 07:44 | -3.78755 | 105.16448 | 21526 ft | 396 kts | 331° |
| 2026-04-20 07:44 | -3.76364 | 105.15108 | 21065 ft | 392 kts | 331° |
| 2026-04-20 07:44 | -3.74028 | 105.13795 | 20609 ft | 388 kts | 331° |
| 2026-04-20 07:45 | -3.71684 | 105.12477 | 20115 ft | 385 kts | 330° |
| 2026-04-20 07:45 | -3.69328 | 105.11151 | 19637 ft | 382 kts | 330° |
| 2026-04-20 07:45 | -3.67017 | 105.09850 | 19138 ft | 380 kts | 330° |
| 2026-04-20 07:45 | -3.64755 | 105.08577 | 18648 ft | 377 kts | 330° |
| 2026-04-20 07:46 | -3.62475 | 105.07294 | 18149 ft | 374 kts | 330° |
| 2026-04-20 07:46 | -3.60215 | 105.06023 | 17643 ft | 371 kts | 330° |
| 2026-04-20 07:46 | -3.57968 | 105.04761 | 17159 ft | 369 kts | 330° |
| 2026-04-20 07:46 | -3.55734 | 105.03510 | 16656 ft | 367 kts | 330° |
| 2026-04-20 07:47 | -3.53514 | 105.02267 | 16161 ft | 364 kts | 330° |
| 2026-04-20 07:47 | -3.51313 | 105.01026 | 15688 ft | 361 kts | 330° |
| 2026-04-20 07:47 | -3.49151 | 104.99753 | 15378 ft | 361 kts | 329° |
| 2026-04-20 07:47 | -3.47005 | 104.98447 | 15053 ft | 361 kts | 328° |
| 2026-04-20 07:48 | -3.44877 | 104.97136 | 14708 ft | 359 kts | 328° |
| 2026-04-20 07:48 | -3.42756 | 104.95822 | 14373 ft | 358 kts | 328° |
| 2026-04-20 07:48 | -3.40640 | 104.94515 | 14039 ft | 357 kts | 328° |
| 2026-04-20 07:48 | -3.38527 | 104.93219 | 13704 ft | 356 kts | 328° |
| 2026-04-20 07:49 | -3.36417 | 104.91931 | 13374 ft | 355 kts | 329° |
| 2026-04-20 07:49 | -3.34309 | 104.90652 | 13031 ft | 354 kts | 329° |
| 2026-04-20 07:49 | -3.32207 | 104.89378 | 12711 ft | 353 kts | 329° |
| 2026-04-20 07:49 | -3.30110 | 104.88107 | 12382 ft | 352 kts | 329° |
| 2026-04-20 07:50 | -3.28728 | 104.87271 | 12179 ft | 351 kts | 329° |
| 2026-04-20 07:50 | -3.26645 | 104.86008 | 11846 ft | 350 kts | 329° |
| 2026-04-20 07:50 | -3.24568 | 104.84745 | 11496 ft | 348 kts | 329° |
| 2026-04-20 07:50 | -3.22503 | 104.83488 | 11165 ft | 346 kts | 329° |
| 2026-04-20 07:51 | -3.20450 | 104.82241 | 10845 ft | 344 kts | 329° |
| 2026-04-20 07:51 | -3.18405 | 104.80998 | 10521 ft | 343 kts | 329° |
| 2026-04-20 07:51 | -3.16370 | 104.79762 | 10206 ft | 340 kts | 329° |
| 2026-04-20 07:51 | -3.14382 | 104.78556 | 10077 ft | 329 kts | 329° |
| 2026-04-20 07:52 | -3.12461 | 104.77389 | 9933 ft | 318 kts | 329° |
| 2026-04-20 07:52 | -3.10601 | 104.76258 | 9818 ft | 308 kts | 329° |
| 2026-04-20 07:52 | -3.08795 | 104.75161 | 9688 ft | 300 kts | 329° |
| 2026-04-20 07:52 | -3.07012 | 104.74156 | 9557 ft | 290 kts | 340° |
| 2026-04-20 07:53 | -3.05083 | 104.73778 | 9435 ft | 279 kts | 3° |
| 2026-04-20 07:53 | -3.03223 | 104.74151 | 9440 ft | 272 kts | 25° |
| 2026-04-20 07:53 | -3.01642 | 104.75160 | 9443 ft | 270 kts | 46° |
| 2026-04-20 07:53 | -3.00544 | 104.76660 | 9442 ft | 268 kts | 66° |
| 2026-04-20 07:54 | -3.00063 | 104.78444 | 9443 ft | 266 kts | 87° |
| 2026-04-20 07:54 | -3.00251 | 104.80276 | 9443 ft | 266 kts | 107° |
| 2026-04-20 07:54 | -3.01073 | 104.81923 | 9443 ft | 266 kts | 128° |
| 2026-04-20 07:54 | -3.02426 | 104.83176 | 9444 ft | 267 kts | 144° |
| 2026-04-20 07:55 | -3.03989 | 104.84193 | 9443 ft | 268 kts | 148° |
| 2026-04-20 07:55 | -3.05594 | 104.85148 | 9443 ft | 268 kts | 149° |
| 2026-04-20 07:55 | -3.07213 | 104.86081 | 9443 ft | 269 kts | 149° |
| 2026-04-20 07:55 | -3.08834 | 104.87013 | 9443 ft | 269 kts | 149° |
| 2026-04-20 07:56 | -3.10471 | 104.87857 | 9440 ft | 269 kts | 160° |
| 2026-04-20 07:56 | -3.12342 | 104.88158 | 9443 ft | 271 kts | 181° |
| 2026-04-20 07:56 | -3.14160 | 104.87767 | 9443 ft | 274 kts | 202° |
| 2026-04-20 07:56 | -3.15746 | 104.86720 | 9443 ft | 276 kts | 224° |
| 2026-04-20 07:57 | -3.16850 | 104.85127 | 9443 ft | 278 kts | 247° |
| 2026-04-20 07:57 | -3.17273 | 104.83246 | 9443 ft | 279 kts | 269° |
| 2026-04-20 07:57 | -3.16963 | 104.81337 | 9443 ft | 279 kts | 291° |
| 2026-04-20 07:57 | -3.15968 | 104.79681 | 9443 ft | 279 kts | 314° |
| 2026-04-20 07:58 | -3.14486 | 104.78487 | 9445 ft | 278 kts | 327° |
| 2026-04-20 07:58 | -3.12848 | 104.77454 | 9444 ft | 278 kts | 330° |
| 2026-04-20 07:58 | -3.11178 | 104.76472 | 9443 ft | 278 kts | 331° |
| 2026-04-20 07:58 | -3.09500 | 104.75504 | 9443 ft | 278 kts | 331° |
| 2026-04-20 07:59 | -3.07823 | 104.74534 | 9443 ft | 278 kts | 332° |
| 2026-04-20 07:59 | -3.06023 | 104.73891 | 9441 ft | 275 kts | 355° |
| 2026-04-20 07:59 | -3.04140 | 104.74052 | 9443 ft | 272 kts | 20° |
| 2026-04-20 07:59 | -3.02506 | 104.74963 | 9443 ft | 269 kts | 44° |
| 2026-04-20 08:00 | -3.01399 | 104.76447 | 9443 ft | 267 kts | 68° |
| 2026-04-20 08:00 | -3.01003 | 104.78241 | 9580 ft | 267 kts | 91° |
| 2026-04-20 08:00 | -3.01347 | 104.80050 | 9638 ft | 267 kts | 114° |
| 2026-04-20 08:00 | -3.02400 | 104.81567 | 9638 ft | 268 kts | 137° |
| 2026-04-20 08:01 | -3.03921 | 104.82647 | 9640 ft | 269 kts | 149° |
| 2026-04-20 08:01 | -3.05686 | 104.83226 | 9638 ft | 270 kts | 175° |
| 2026-04-20 08:01 | -3.07547 | 104.82992 | 9639 ft | 273 kts | 199° |
| 2026-04-20 08:01 | -3.09161 | 104.82012 | 9640 ft | 275 kts | 224° |
| 2026-04-20 08:02 | -3.10242 | 104.80440 | 9638 ft | 277 kts | 249° |
| 2026-04-20 08:02 | -3.10570 | 104.78551 | 9639 ft | 278 kts | 274° |
| 2026-04-20 08:02 | -3.10076 | 104.76694 | 9638 ft | 278 kts | 299° |
| 2026-04-20 08:02 | -3.08849 | 104.75219 | 9638 ft | 277 kts | 324° |
| 2026-04-20 08:03 | -3.07233 | 104.74153 | 9600 ft | 284 kts | 329° |
| 2026-04-20 08:03 | -3.05489 | 104.73086 | 9280 ft | 298 kts | 330° |
| 2026-04-20 08:03 | -3.03705 | 104.72015 | 8986 ft | 299 kts | 330° |
| 2026-04-20 08:03 | -3.01939 | 104.70923 | 8699 ft | 299 kts | 324° |
| 2026-04-20 08:04 | -3.00442 | 104.69493 | 8412 ft | 298 kts | 308° |
| 2026-04-20 08:04 | -2.99395 | 104.67713 | 8124 ft | 297 kts | 292° |
| 2026-04-20 08:04 | -2.98630 | 104.65799 | 7833 ft | 296 kts | 292° |
| 2026-04-20 08:04 | -2.97862 | 104.63889 | 7554 ft | 295 kts | 292° |
| 2026-04-20 08:05 | -2.97097 | 104.61992 | 7279 ft | 293 kts | 292° |
| 2026-04-20 08:05 | -2.96339 | 104.60111 | 6984 ft | 291 kts | 292° |
| 2026-04-20 08:05 | -2.95598 | 104.58232 | 6697 ft | 289 kts | 291° |
| 2026-04-20 08:05 | -2.94879 | 104.56383 | 6413 ft | 288 kts | 291° |
| 2026-04-20 08:06 | -2.94157 | 104.54518 | 6133 ft | 287 kts | 291° |
| 2026-04-20 08:06 | -2.93435 | 104.52664 | 5850 ft | 286 kts | 291° |
| 2026-04-20 08:06 | -2.92715 | 104.50817 | 5567 ft | 284 kts | 291° |
| 2026-04-20 08:06 | -2.91999 | 104.48979 | 5284 ft | 283 kts | 291° |
| 2026-04-20 08:07 | -2.91283 | 104.47144 | 5003 ft | 282 kts | 291° |
| 2026-04-20 08:07 | -2.90501 | 104.45360 | 4722 ft | 280 kts | 303° |
| 2026-04-20 08:07 | -2.89117 | 104.44032 | 4450 ft | 277 kts | 332° |
| 2026-04-20 08:07 | -2.87289 | 104.43531 | 4152 ft | 273 kts | 1° |
| 2026-04-20 08:08 | -2.85452 | 104.43925 | 3846 ft | 271 kts | 22° |
| 2026-04-20 08:08 | -2.83695 | 104.44593 | 3634 ft | 267 kts | 22° |
| 2026-04-20 08:08 | -2.82022 | 104.45330 | 3518 ft | 257 kts | 37° |
| 2026-04-20 08:08 | -2.80938 | 104.46659 | 3395 ft | 243 kts | 71° |
| 2026-04-20 08:09 | -2.80767 | 104.48270 | 3278 ft | 230 kts | 102° |
| 2026-04-20 08:09 | -2.81292 | 104.49737 | 3176 ft | 221 kts | 114° |
| 2026-04-20 08:09 | -2.81895 | 104.51145 | 3077 ft | 220 kts | 113° |
| 2026-04-20 08:09 | -2.82489 | 104.52547 | 3004 ft | 219 kts | 113° |
| 2026-04-20 08:10 | -2.83079 | 104.53948 | 2998 ft | 214 kts | 113° |
| 2026-04-20 08:10 | -2.83647 | 104.55296 | 2819 ft | 208 kts | 113° |
| 2026-04-20 08:10 | -2.84205 | 104.56624 | 2587 ft | 204 kts | 113° |
| 2026-04-20 08:10 | -2.84747 | 104.57913 | 2314 ft | 197 kts | 113° |
| 2026-04-20 08:11 | -2.85269 | 104.59151 | 2048 ft | 188 kts | 112° |
| 2026-04-20 08:11 | -2.85757 | 104.60312 | 1805 ft | 174 kts | 112° |
| 2026-04-20 08:11 | -2.86198 | 104.61359 | 1614 ft | 157 kts | 112° |
| 2026-04-20 08:11 | -2.86619 | 104.62359 | 1383 ft | 151 kts | 112° |
| 2026-04-20 08:12 | -2.87018 | 104.63308 | 1190 ft | 149 kts | 112° |
| 2026-04-20 08:12 | -2.87418 | 104.64257 | 992 ft | 148 kts | 112° |
| 2026-04-20 08:12 | -2.87815 | 104.65202 | 798 ft | 147 kts | 112° |
| 2026-04-20 08:12 | -2.88212 | 104.66145 | 603 ft | 147 kts | 112° |
| 2026-04-20 08:13 | -2.88609 | 104.67088 | 411 ft | 147 kts | 113° |
| 2026-04-20 08:13 | -2.89003 | 104.68032 | 203 ft | 147 kts | 112° |
| 2026-04-20 08:13 | -2.89399 | 104.68974 | 36 ft | 146 kts | 113° |
| 2026-04-20 08:13 | -2.89793 | 104.69925 | 249 ft | 159 kts | 111° |
| 2026-04-20 08:14 | -2.90235 | 104.71081 | 628 ft | 192 kts | 110° |
| 2026-04-20 08:14 | -2.90730 | 104.72396 | 946 ft | 211 kts | 111° |
| 2026-04-20 08:14 | -2.91272 | 104.73773 | 1630 ft | 215 kts | 107° |
| 2026-04-20 08:14 | -2.91374 | 104.75256 | 2352 ft | 218 kts | 77° |
| 2026-04-20 08:15 | -2.90661 | 104.76598 | 2865 ft | 226 kts | 44° |
| 2026-04-20 08:15 | -2.89288 | 104.77319 | 2983 ft | 227 kts | 9° |
| 2026-04-20 08:15 | -2.87734 | 104.77151 | 3003 ft | 228 kts | 336° |
| 2026-04-20 08:15 | -2.86513 | 104.76164 | 3010 ft | 229 kts | 303° |
| 2026-04-20 08:16 | -2.85652 | 104.74817 | 3002 ft | 230 kts | 310° |
| 2026-04-20 08:16 | -2.84535 | 104.73673 | 3006 ft | 230 kts | 311° |
| 2026-04-20 08:16 | -2.83615 | 104.72370 | 3008 ft | 230 kts | 301° |
| 2026-04-20 08:16 | -2.82792 | 104.71001 | 3010 ft | 230 kts | 300° |
| 2026-04-20 08:17 | -2.81981 | 104.69621 | 3007 ft | 230 kts | 300° |
| 2026-04-20 08:17 | -2.81173 | 104.68240 | 3009 ft | 230 kts | 300° |
| 2026-04-20 08:17 | -2.80345 | 104.66827 | 3008 ft | 240 kts | 300° |
| 2026-04-20 08:17 | -2.79496 | 104.65376 | 3010 ft | 242 kts | 300° |
| 2026-04-20 08:18 | -2.78644 | 104.63919 | 3007 ft | 243 kts | 300° |
| 2026-04-20 08:18 | -2.77790 | 104.62462 | 3012 ft | 243 kts | 300° |
| 2026-04-20 08:18 | -2.76936 | 104.61006 | 3011 ft | 243 kts | 300° |
| 2026-04-20 08:18 | -2.76310 | 104.59452 | 3005 ft | 241 kts | 277° |
| 2026-04-20 08:19 | -2.76180 | 104.57797 | 3009 ft | 242 kts | 271° |
| 2026-04-20 08:19 | -2.76134 | 104.56116 | 3008 ft | 242 kts | 270° |
| 2026-04-20 08:19 | -2.76100 | 104.54412 | 3008 ft | 242 kts | 270° |
| 2026-04-20 08:19 | -2.76068 | 104.52732 | 3008 ft | 241 kts | 270° |
| 2026-04-20 08:20 | -2.76037 | 104.51074 | 3012 ft | 242 kts | 270° |
| 2026-04-20 08:20 | -2.76006 | 104.49393 | 3004 ft | 242 kts | 270° |
| 2026-04-20 08:20 | -2.75990 | 104.47712 | 2985 ft | 241 kts | 265° |
| 2026-04-20 08:20 | -2.76489 | 104.46149 | 2982 ft | 237 kts | 235° |
| 2026-04-20 08:21 | -2.77591 | 104.44931 | 2982 ft | 236 kts | 214° |
| 2026-04-20 08:21 | -2.79059 | 104.44246 | 2980 ft | 233 kts | 189° |
| 2026-04-20 08:21 | -2.80619 | 104.44240 | 2978 ft | 220 kts | 165° |
| 2026-04-20 08:21 | -2.81999 | 104.44849 | 2980 ft | 218 kts | 142° |
| 2026-04-20 08:22 | -2.83028 | 104.45945 | 2981 ft | 217 kts | 120° |
| 2026-04-20 08:22 | -2.83508 | 104.47363 | 2980 ft | 217 kts | 89° |
| 2026-04-20 08:22 | -2.83320 | 104.48862 | 2982 ft | 219 kts | 83° |
| 2026-04-20 08:22 | -2.83125 | 104.50372 | 2981 ft | 219 kts | 83° |
| 2026-04-20 08:23 | -2.82939 | 104.51855 | 2978 ft | 209 kts | 84° |
| 2026-04-20 08:23 | -2.82989 | 104.53268 | 2974 ft | 202 kts | 103° |
| 2026-04-20 08:23 | -2.83386 | 104.54588 | 2930 ft | 192 kts | 110° |
| 2026-04-20 08:23 | -2.83867 | 104.55804 | 2727 ft | 184 kts | 112° |
| 2026-04-20 08:24 | -2.84349 | 104.56963 | 2492 ft | 176 kts | 112° |
| 2026-04-20 08:24 | -2.84808 | 104.58054 | 2272 ft | 163 kts | 112° |
| 2026-04-20 08:24 | -2.85230 | 104.59058 | 2083 ft | 153 kts | 112° |
| 2026-04-20 08:24 | -2.85640 | 104.60031 | 1869 ft | 150 kts | 112° |
| 2026-04-20 08:25 | -2.86043 | 104.60989 | 1679 ft | 149 kts | 111° |
| 2026-04-20 08:25 | -2.86444 | 104.61945 | 1467 ft | 149 kts | 111° |
| 2026-04-20 08:25 | -2.86847 | 104.62900 | 1278 ft | 149 kts | 111° |
| 2026-04-20 08:25 | -2.87244 | 104.63843 | 1082 ft | 149 kts | 111° |
| 2026-04-20 08:26 | -2.87644 | 104.64794 | 884 ft | 149 kts | 111° |
| 2026-04-20 08:26 | -2.88044 | 104.65746 | 682 ft | 148 kts | 111° |
| 2026-04-20 08:26 | -2.88444 | 104.66696 | 490 ft | 148 kts | 112° |
| 2026-04-20 08:26 | -2.88843 | 104.67645 | 289 ft | 148 kts | 111° |
| 2026-04-20 08:27 | -2.89247 | 104.68607 | 72 ft | 148 kts | 111° |
| 2026-04-20 08:27 | -2.89625 | 104.69494 | 13 ft | 123 kts | 112° |
| 2026-04-20 08:27 | -2.89890 | 104.70139 | 22 ft | 82 kts | 112° |
| 2026-04-20 08:27 | -2.90073 | 104.70571 | 21 ft | 56 kts | 113° |
| 2026-04-20 08:28 | -2.90194 | 104.70858 | 18 ft | 31 kts | 112° |
| 2026-04-20 08:28 | -2.90236 | 104.70967 | 19 ft | 9 kts | 98° |
| 2026-04-20 08:28 | -2.90206 | 104.71031 | 20 ft | 12 kts | 44° |
| 2026-04-20 08:28 | -2.90118 | 104.71043 | 18 ft | 15 kts | 336° |
| 2026-04-20 08:29 | -2.90058 | 104.70950 | 17 ft | 18 kts | 295° |
| 2026-04-20 08:29 | -2.90008 | 104.70833 | 20 ft | 19 kts | 292° |
| 2026-04-20 08:29 | -2.89956 | 104.70707 | 21 ft | 20 kts | 293° |
| 2026-04-20 08:29 | -2.89904 | 104.70585 | 22 ft | 13 kts | 293° |
| 2026-04-20 08:30 | -2.89863 | 104.70535 | 24 ft | 8 kts | 348° |
| 2026-04-20 08:30 | -2.89810 | 104.70551 | 26 ft | 8 kts | 22° |
| 2026-04-20 08:30 | -2.89770 | 104.70557 | 28 ft | 6 kts | 340° |
| 2026-04-20 08:30 | -2.89744 | 104.70516 | 27 ft | 8 kts | 291° |
| 2026-04-20 08:31 | -2.89721 | 104.70458 | 31 ft | 9 kts | 292° |
| 2026-04-20 08:31 | -2.89699 | 104.70438 | 29 ft | 4 kts | 358° |
| 2026-04-20 08:31 | -2.89666 | 104.70450 | 28 ft | 6 kts | 22° |
| 2026-04-20 08:31 | -2.89639 | 104.70462 | 26 ft | 2 kts | 25° |
| 2026-04-20 08:32 | -2.89629 | 104.70466 | 26 ft | 2 kts | 23° |
| 2026-04-20 08:32 | -2.89625 | 104.70468 | 27 ft | 0 kts | 23° |